Williana, Louisiana
Current Conditions -  °F | °C
As of 11:53 AM on Saturday 22 Nov 2014 (Local Time) from KAEX Reporting Station
Overcast Overcast  
Wind Chill: 21°   Ceiling: 3500
Heat Index: 21°   Visibility: 10mi
Dew Point: 13°   Wind: 15mph
Humidity: 63%   Direction: 130°SE
Pressure: 30.09"   Gusts: NA
Location:  31.6531°N, 92.5571°W
Report Text: KAEX 221753Z 13013KT 10SM OVC035 21/13 A3009 RMK AO2 SLP192 T02060133 10206 20122 58026
Loading
Personal Weather Stations






























Interactive Weather Map New forecast layout! Learn more

10-Day Weather Forecast

Advertisements
Track Severe Weather on mobile